Current Conditions
Clear
Conditions



Rainfall
0.00 (mm) - 0.00 (in)
Pressure
997.92 (hPa) - 29.47 (inHG)
Visibility

10.0 (km) - 6.2 (miles)
   Temperature
-3  °C
27°F
-8  °C
Dewpoint
69  %
 Humidity
   Wind Speed
7.2  m/s
16  mph
26  km/h
14  kts
   Wind Direction
 310°
North West
   Airport Data
ESMX
Location Växjö Kronoberg Airport 15 km (9.32 mi)
Metar :ESMX 200520Z AUTO 31014KT 9999 NCD M03/M08 Q0998
Thu 20th January 06:20 am
   Raw Metar Info
Raw METAR is the most common format in the world for the transmission of observational weather data. It is highly standardized through the International Civil Aviation Organization (ICAO), which allows it to be understood throughout most of the world.
   API Info
Data Provided by
https://www.checkwx.com/weather/ESMX
   © Info
CSS/SVG/PHP scripts were developed by weather34.com for use in the weather34 template © 2015-2022

Guide Info provided by Metar-Wikipedia